Thunderstorms From: 25-05-2018 15:00 Until: 26-05-2018 15:00 warning for: Thunderstorms Level: Yellow info button

Although rather usual in this region, locally or potentially dangerous phenomena are expected. (such as local winds, summer thunderstorms, rising streams or high waves) Be aware and pay attention to the latest weather updates, especially if you carry out activities exposed to weather or close to a stream or shoreline. 


Meteo18 Weather Cam more information Meteo18 Weather Cam


warning for Thunderstorms more information blitzortung!


Rain radar more information rain snow radar


Visit our other weather sites:

Template documentation
and downloads

And another site



Weather Underground History page Text

Daily Summary for April 12, 2016 Units:  Metric    English   Both
« Previous Day
Next Day »
Daily Weekly Monthly Yearly Custom
  High: Low: Average:
Temperature: -17.8 °C -15.5 °C -11.8 °C
Dew Point: -17.8 °C -15.7 °C -13.4 °C
Humidity: Humidity % 54 % 84 %
Wind Speed: 0 km/h 0 km/h 0.8 km/h
Wind Gust: 0 km/h - -
Wind:- - SW
Pressure: 0 hPa 34086.9 hPa -
Precipitation: 25.4 mm    
Historical Graphs
 
 
Tabular Data for April 12, 2016
Time Temperature Dew Point Pressure Wind Wind Speed Wind Gust Humidity Rainfall Rate (Hourly)
-17.8 °C -17.8 °C 0 hPa Calm     Humidity % 0 mm
00:02 -14.6 °C -14.9 °C 34164.7 hPa Calm   2.6 km/h 96 % 0 mm
00:07 -14.7 °C -15 °C 34178.3 hPa Calm   2.6 km/h 96 % 0 mm
00:12 -14.7 °C -15.1 °C 34178.3 hPa Calm     96 % 0 mm
00:17 -14.8 °C -15.2 °C 34164.7 hPa Calm     96 % 0 mm
00:22 -14.9 °C -15.2 °C 34178.3 hPa Calm     96 % 0 mm
00:32 -14.9 °C -15.3 °C 34178.3 hPa Calm     96 % 0 mm
00:42 -14.9 °C -15.1 °C 34178.3 hPa Calm     97 % 0 mm
00:47 -15 °C -15.3 °C 34178.3 hPa Calm     96 % 0 mm
00:52 -15.1 °C -15.4 °C 34178.3 hPa Calm     96 % 0 mm
00:57 -14.9 °C -15.2 °C 34178.3 hPa Calm     97 % 0 mm
01:02 -15 °C -15.2 °C 34178.3 hPa Calm     97 % 0 mm
01:07 -15.1 °C -15.3 °C 34178.3 hPa Calm     97 % 0 mm
01:12 -15.1 °C -15.3 °C 34178.3 hPa Calm     97 % 0 mm
01:17 -15.1 °C -15.3 °C 34178.3 hPa Calm     97 % 0 mm
01:22 -15.2 °C -15.4 °C 34178.3 hPa Calm     97 % 0 mm
01:27 -15.1 °C -15.3 °C 34178.3 hPa Calm     97 % 0 mm
01:32 -15.1 °C -15.3 °C 34178.3 hPa Calm     97 % 7.62 mm
01:37 -15.2 °C -15.4 °C 34178.3 hPa Calm     97 % 7.62 mm
01:42 -15.2 °C -15.4 °C 34178.3 hPa Calm     97 % 7.62 mm
01:47 -15.3 °C -15.5 °C 34178.3 hPa Calm     97 % 7.62 mm
01:52 -15.3 °C -15.6 °C 34178.3 hPa Calm     97 % 7.62 mm
01:57 -15.4 °C -15.6 °C 34178.3 hPa Calm     97 % 7.62 mm
02:02 -15.5 °C -15.7 °C 34178.3 hPa Calm     97 % 7.62 mm
02:07 -15.4 °C -15.7 °C 34178.3 hPa Calm     97 % 7.62 mm
02:12 -15.4 °C -15.6 °C 34178.3 hPa Calm     97 % 7.62 mm
02:17 -15.4 °C -15.6 °C 34178.3 hPa Calm     97 % 7.62 mm
02:22 -15.3 °C -15.6 °C 34178.3 hPa Calm     97 % 7.62 mm
02:27 -15.2 °C -15.4 °C 34178.3 hPa Calm     97 % 7.62 mm
02:32 -15.3 °C -15.5 °C 34178.3 hPa Calm   2.6 km/h 97 % 0 mm
02:37 -15.2 °C -15.4 °C 34178.3 hPa Calm   2.6 km/h 97 % 0 mm
02:42 -15.2 °C -15.4 °C 34178.3 hPa Calm   2.6 km/h 97 % 0 mm
02:47 -15.1 °C -15.3 °C 34178.3 hPa Calm   2.6 km/h 97 % 0 mm
02:52 -14.9 °C -15.2 °C 34178.3 hPa Calm     97 % 0 mm
03:07 -14.8 °C -15 °C 34164.7 hPa Calm     98 % 0 mm
03:12 -14.7 °C -14.9 °C 34164.7 hPa Calm     98 % 0 mm
03:17 -14.6 °C -14.8 °C 34164.7 hPa Calm     98 % 0 mm
03:22 -14.6 °C -14.7 °C 34164.7 hPa Calm     98 % 0 mm
03:27 -14.6 °C -14.7 °C 34164.7 hPa Calm     98 % 0 mm
03:32 -14.6 °C -14.7 °C 34164.7 hPa Calm     98 % 0 mm
03:37 -14.6 °C -14.7 °C 34154.6 hPa Calm     98 % 0 mm
03:42 -14.6 °C -14.8 °C 34164.7 hPa Calm     97 % 0 mm
03:47 -14.6 °C -14.8 °C 34154.6 hPa Calm     97 % 0 mm
03:52 -14.6 °C -14.8 °C 34154.6 hPa Calm     97 % 0 mm
03:57 -14.6 °C -14.8 °C 34154.6 hPa Calm     97 % 0 mm
04:02 -14.6 °C -14.8 °C 34154.6 hPa Calm     97 % 0 mm
04:07 -14.6 °C -14.8 °C 34154.6 hPa Calm     97 % 0 mm
04:17 -14.6 °C -14.8 °C 34154.6 hPa Calm     97 % 0 mm
04:22 -14.7 °C -14.9 °C 34154.6 hPa Calm     97 % 0 mm
04:27 -14.7 °C -14.9 °C 34164.7 hPa Calm     97 % 0 mm
04:32 -14.6 °C -14.8 °C 34154.6 hPa Calm     97 % 0 mm
04:37 -14.6 °C -14.8 °C 34154.6 hPa Calm     97 % 0 mm
04:42 -14.7 °C -14.9 °C 34154.6 hPa Calm     97 % 0 mm
04:52 -14.7 °C -14.9 °C 34154.6 hPa Calm     97 % 0 mm
04:57 -14.6 °C -14.8 °C 34154.6 hPa Calm     97 % 0 mm
05:02 -14.7 °C -14.9 °C 34154.6 hPa Calm     97 % 0 mm
05:07 -14.7 °C -14.9 °C 34154.6 hPa Calm     97 % 0 mm
05:12 -14.7 °C -14.9 °C 34144.4 hPa Calm     97 % 0 mm
05:17 -14.7 °C -14.9 °C 34144.4 hPa Calm     97 % 0 mm
05:22 -14.7 °C -14.9 °C 34154.6 hPa Calm     97 % 0 mm
05:27 -14.7 °C -14.9 °C 34154.6 hPa Calm     97 % 0 mm
05:37 -14.7 °C -14.9 °C 34144.4 hPa Calm     97 % 0 mm
05:42 -14.7 °C -14.9 °C 34144.4 hPa Calm     97 % 0 mm
05:47 -14.7 °C -14.9 °C 34144.4 hPa Calm     97 % 0 mm
05:52 -14.8 °C -15 °C 34144.4 hPa Calm     97 % 0 mm
05:57 -14.8 °C -15 °C 34144.4 hPa Calm     97 % 0 mm
06:02 -14.8 °C -15.1 °C 34144.4 hPa Calm     97 % 0 mm
06:07 -14.9 °C -15.2 °C 34144.4 hPa Calm     97 % 0 mm
06:12 -14.9 °C -15.2 °C 34144.4 hPa Calm     97 % 0 mm
06:17 -14.9 °C -15.2 °C 34144.4 hPa Calm     97 % 0 mm
06:22 -14.9 °C -15.2 °C 34144.4 hPa Calm     97 % 0 mm
06:32 -14.8 °C -15 °C 34144.4 hPa Calm     98 % 0 mm
06:37 -14.6 °C -14.8 °C 34144.4 hPa Calm     98 % 0 mm
06:42 -14.6 °C -14.7 °C 34154.6 hPa Calm   2.6 km/h 98 % 0 mm
06:47 -14.6 °C -14.7 °C 34154.6 hPa Calm   2.6 km/h 98 % 0 mm
06:52 -14.6 °C -14.7 °C 34154.6 hPa Calm   2.6 km/h 98 % 0 mm
06:57 -14.5 °C -14.7 °C 34154.6 hPa Calm     98 % 0 mm
07:02 -14.4 °C -14.6 °C 34154.6 hPa Calm     98 % 0 mm
07:07 -14.4 °C -14.6 °C 34154.6 hPa Calm     98 % 0 mm
07:12 -14.4 °C -14.6 °C 34164.7 hPa Calm     98 % 0 mm
07:17 -14.4 °C -14.6 °C 34164.7 hPa Calm     98 % 0 mm
07:22 -14.3 °C -14.5 °C 34164.7 hPa Calm     98 % 0 mm
07:27 -14.3 °C -14.5 °C 34164.7 hPa Calm     98 % 0 mm
07:32 -14.2 °C -14.4 °C 34164.7 hPa Calm     98 % 0 mm
07:37 -14.2 °C -14.3 °C 34164.7 hPa Calm     98 % 0 mm
07:42 -14.1 °C -14.3 °C 34164.7 hPa Calm     98 % 0 mm
07:47 -14.1 °C -14.3 °C 34164.7 hPa Calm     98 % 0 mm
07:52 -14.1 °C -14.3 °C 34178.3 hPa Calm   2.6 km/h 98 % 0 mm
07:57 -14.1 °C -14.2 °C 34178.3 hPa Calm   2.6 km/h 98 % 0 mm
08:02 -13.9 °C -14.1 °C 34178.3 hPa Calm   2.6 km/h 98 % 0 mm
08:12 -13.8 °C -14 °C 34178.3 hPa Calm   2.6 km/h 98 % 0 mm
08:17 -13.8 °C -13.9 °C 34178.3 hPa Calm   2.6 km/h 98 % 0 mm
08:22 -13.7 °C -13.9 °C 34178.3 hPa Calm   2.6 km/h 98 % 0 mm
08:27 -13.7 °C -13.8 °C 34178.3 hPa Calm   2.6 km/h 98 % 0 mm
08:32 -13.6 °C -13.8 °C 34178.3 hPa Calm   2.6 km/h 98 % 0 mm
08:37 -13.6 °C -13.7 °C 34178.3 hPa Calm   2.6 km/h 98 % 0 mm
08:42 -13.4 °C -13.6 °C 34178.3 hPa Calm   2.6 km/h 98 % 0 mm
08:47 -13.2 °C -13.4 °C 34188.4 hPa Calm   2.6 km/h 98 % 0 mm
08:52 -13.2 °C -13.4 °C 34198.6 hPa SW 5.1 km/h 7.7 km/h 98 % 0 mm
09:02 -13.2 °C -13.3 °C 34198.6 hPa WSW 2.6 km/h 7.7 km/h 98 % 0 mm
09:07 -13.1 °C -13.3 °C 34188.4 hPa Calm   7.7 km/h 98 % 0 mm
09:12 -12.9 °C -13.1 °C 34188.4 hPa SW 2.6 km/h 7.7 km/h 98 % 0 mm
09:17 -12.9 °C -13.1 °C 34188.4 hPa Calm   7.7 km/h 98 % 0 mm
09:22 -12.9 °C -13.2 °C 34188.4 hPa Calm   7.7 km/h 97 % 0 mm
09:27 -12.9 °C -13.2 °C 34198.6 hPa SW 2.6 km/h 7.7 km/h 97 % 0 mm
09:32 -12.8 °C -13.1 °C 34198.6 hPa SW 5.1 km/h 12.9 km/h 97 % 7.62 mm
09:37 -12.8 °C -13.1 °C 34188.4 hPa Calm   12.9 km/h 96 % 7.62 mm
09:42 -12.6 °C -12.9 °C 34188.4 hPa WSW 2.6 km/h 10.3 km/h 96 % 7.62 mm
09:47 -12.4 °C -12.8 °C 34188.4 hPa Calm   10.3 km/h 96 % 7.62 mm
09:57 -12 °C -12.5 °C 34188.4 hPa Calm   5.1 km/h 94 % 7.62 mm
10:02 -11.9 °C -12.5 °C 34178.3 hPa Calm   5.1 km/h 93 % 7.62 mm
10:07 -11.7 °C -12.4 °C 34178.3 hPa SW 2.6 km/h 5.1 km/h 92 % 7.62 mm
10:12 -11.5 °C -12.4 °C 34188.4 hPa Calm   5.1 km/h 90 % 7.62 mm
10:17 -11.4 °C -12.4 °C 34188.4 hPa Calm   5.1 km/h 89 % 7.62 mm
10:22 -11.5 °C -12.6 °C 34188.4 hPa WSW 2.6 km/h 10.3 km/h 88 % 7.62 mm
10:32 -11.7 °C -12.8 °C 34188.4 hPa Calm   10.3 km/h 87 % 0 mm
10:37 -11.8 °C -12.7 °C 34198.6 hPa Calm   5.1 km/h 89 % 0 mm
10:42 -11.8 °C -12.7 °C 34198.6 hPa Calm   5.1 km/h 90 % 0 mm
10:47 -11.8 °C -12.6 °C 34198.6 hPa Calm   5.1 km/h 91 % 12.7 mm
10:52 -11.7 °C -12.4 °C 34188.4 hPa Calm   2.6 km/h 92 % 12.7 mm
10:57 -11.7 °C -12.4 °C 34198.6 hPa SW 2.6 km/h 2.6 km/h 92 % 12.7 mm
11:02 -11.8 °C -12.6 °C 34198.6 hPa Calm   2.6 km/h 91 % 12.7 mm
11:07 -11.8 °C -12.4 °C 34188.4 hPa Calm   2.6 km/h 92 % 12.7 mm
11:12 -11.7 °C -12.4 °C 34198.6 hPa Calm   2.6 km/h 91 % 12.7 mm
11:17 -11.5 °C -12.4 °C 34198.6 hPa WSW 2.6 km/h 5.1 km/h 90 % 12.7 mm
11:22 -11.2 °C -12.2 °C 34198.6 hPa Calm   5.1 km/h 89 % 12.7 mm
11:27 -11 °C -12.1 °C 34188.4 hPa Calm   5.1 km/h 88 % 12.7 mm
11:42 -10.2 °C -11.9 °C 34188.4 hPa Calm   7.7 km/h 82 % 12.7 mm
11:47 -9.9 °C -11.6 °C 34188.4 hPa Calm   7.7 km/h 82 % 0 mm
11:52 -9.7 °C -12 °C 34188.4 hPa Calm   5.1 km/h 76 % 0 mm
11:57 -9.4 °C -11.7 °C 34188.4 hPa SW 5.1 km/h 5.1 km/h 77 % 0 mm
12:02 -9.5 °C -12.4 °C 34188.4 hPa Calm   7.7 km/h 71 % 0 mm
12:07 -9.7 °C -12.4 °C 34188.4 hPa SW 5.1 km/h 7.7 km/h 72 % 0 mm
12:12 -9.9 °C -12.8 °C 34188.4 hPa WSW 2.6 km/h 7.7 km/h 71 % 0 mm
12:17 -9.8 °C -12.7 °C 34188.4 hPa Calm   7.7 km/h 71 % 0 mm
12:22 -9.7 °C -12.6 °C 34188.4 hPa Calm   7.7 km/h 71 % 0 mm
12:27 -9.7 °C -13.2 °C 34178.3 hPa SW 2.6 km/h 7.7 km/h 66 % 0 mm
12:32 -9.6 °C -13.1 °C 34178.3 hPa Calm   7.7 km/h 66 % 0 mm
12:42 -9 °C -12.3 °C 34178.3 hPa Calm   7.7 km/h 68 % 0 mm
12:47 -9 °C -12.1 °C 34178.3 hPa WSW 7.7 km/h 10.3 km/h 70 % 0 mm
12:52 -9.2 °C -12.7 °C 34178.3 hPa Calm   12.9 km/h 66 % 0 mm
12:57 -9.1 °C -12.6 °C 34178.3 hPa West 5.1 km/h 12.9 km/h 66 % 0 mm
13:02 -8.8 °C -11.5 °C 34178.3 hPa East 2.6 km/h 12.9 km/h 73 % 0 mm
13:07 -8.8 °C -12.5 °C 34178.3 hPa SW 5.1 km/h 10.3 km/h 65 % 0 mm
13:17 -8.9 °C -12.6 °C 34178.3 hPa Calm   12.9 km/h 65 % 0 mm
13:22 -8.9 °C -12.4 °C 34178.3 hPa Calm   12.9 km/h 66 % 0 mm
13:27 -9.1 °C -12.4 °C 34178.3 hPa West 2.6 km/h 10.3 km/h 67 % 0 mm
13:32 -9.1 °C -12.1 °C 34178.3 hPa West 5.1 km/h 10.3 km/h 70 % 0 mm
13:37 -9.2 °C -12.7 °C 34178.3 hPa Calm   10.3 km/h 66 % 0 mm
13:47 -9.4 °C -12.7 °C 34178.3 hPa Calm   10.3 km/h 68 % 0 mm
13:52 -9.3 °C -12.2 °C 34178.3 hPa Calm   10.3 km/h 71 % 0 mm
13:57 -9.3 °C -12.2 °C 34178.3 hPa Calm   10.3 km/h 71 % 0 mm
14:02 -9.2 °C -12.2 °C 34178.3 hPa Calm   7.7 km/h 70 % 0 mm
14:07 -9.3 °C -12.4 °C 34178.3 hPa Calm   7.7 km/h 69 % 0 mm
14:12 -9.4 °C -12.6 °C 34178.3 hPa Calm   7.7 km/h 69 % 0 mm
14:17 -9.2 °C -12.1 °C 34178.3 hPa Calm   7.7 km/h 71 % 0 mm
14:22 -9.1 °C -12.1 °C 34178.3 hPa SSW 2.6 km/h 7.7 km/h 70 % 0 mm
14:27 -9.1 °C -12.5 °C 34178.3 hPa Calm   7.7 km/h 67 % 0 mm
14:32 -8.8 °C -11.8 °C 34178.3 hPa WSW 2.6 km/h 7.7 km/h 71 % 0 mm
14:37 -8.7 °C -12.3 °C 34164.7 hPa NNE 2.6 km/h 5.1 km/h 66 % 0 mm
14:42 -8.7 °C -12.1 °C 34164.7 hPa West 5.1 km/h 5.1 km/h 67 % 0 mm
14:47 -8.9 °C -12.2 °C 34164.7 hPa WSW 5.1 km/h 10.3 km/h 68 % 0 mm
14:52 -8.9 °C -12.3 °C 34164.7 hPa WSW 2.6 km/h 10.3 km/h 67 % 0 mm
14:57 -8.9 °C -12 °C 34164.7 hPa NNW 2.6 km/h 10.3 km/h 70 % 0 mm
15:02 -8.9 °C -12.3 °C 34164.7 hPa Calm   7.7 km/h 67 % 0 mm
15:07 -8.8 °C -12.5 °C 34164.7 hPa Calm   5.1 km/h 65 % 0 mm
15:12 -8.8 °C -12.1 °C 34164.7 hPa West 5.1 km/h 5.1 km/h 68 % 0 mm
15:17 -8.8 °C -12.1 °C 34164.7 hPa SW 2.6 km/h 7.7 km/h 68 % 0 mm
15:22 -8.6 °C -11.4 °C 34154.6 hPa Calm   7.7 km/h 72 % 0 mm
15:27 -8.4 °C -12.1 °C 34154.6 hPa Calm   12.9 km/h 65 % 0 mm
15:32 -8.3 °C -11.6 °C 34154.6 hPa Calm   12.9 km/h 68 % 0 mm
15:37 -8.3 °C -12.2 °C 34154.6 hPa SW 2.6 km/h 12.9 km/h 63 % 0 mm
15:42 -8.2 °C -11.3 °C 34154.6 hPa WSW 2.6 km/h 10.3 km/h 69 % 0 mm
15:47 -8.2 °C -12.1 °C 34144.4 hPa South 5.1 km/h 12.9 km/h 63 % 0 mm
15:52 -8.1 °C -12.1 °C 34144.4 hPa SW 7.7 km/h 12.9 km/h 63 % 0 mm
15:57 -8 °C -11.6 °C 34144.4 hPa Calm   12.9 km/h 66 % 0 mm
16:02 -7.9 °C -11.4 °C 34144.4 hPa SW 5.1 km/h 12.9 km/h 66 % 0 mm
16:07 -7.9 °C -11.9 °C 34144.4 hPa Calm   12.9 km/h 63 % 0 mm
16:12 -8 °C -11.8 °C 34144.4 hPa WSW 2.6 km/h 12.9 km/h 64 % 0 mm
16:17 -8 °C -12.1 °C 34130.9 hPa West 2.6 km/h 7.7 km/h 62 % 0 mm
16:22 -7.9 °C -11.8 °C 34130.9 hPa Calm   10.3 km/h 64 % 0 mm
16:27 -7.9 °C -11.7 °C 34130.9 hPa SW 2.6 km/h 10.3 km/h 64 % 0 mm
16:32 -7.9 °C -11.8 °C 34130.9 hPa Calm   10.3 km/h 63 % 0 mm
16:37 -7.8 °C -11.9 °C 34130.9 hPa Calm   10.3 km/h 62 % 0 mm
16:42 -7.8 °C -11.9 °C 34120.7 hPa SW 2.6 km/h 10.3 km/h 62 % 0 mm
16:52 -8.2 °C -12 °C 34120.7 hPa Calm   10.3 km/h 64 % 0 mm
16:57 -8.4 °C -12.4 °C 34120.7 hPa Calm   10.3 km/h 63 % 0 mm
17:02 -8.5 °C -12.1 °C 34120.7 hPa Calm   10.3 km/h 66 % 0 mm
17:07 -8.3 °C -12.3 °C 34120.7 hPa West 2.6 km/h 5.1 km/h 62 % 0 mm
17:12 -7.9 °C -12.1 °C 34107.2 hPa SW 5.1 km/h 7.7 km/h 62 % 0 mm
17:17 -7.7 °C -12.1 °C 34107.2 hPa SW 2.6 km/h 7.7 km/h 60 % 0 mm
17:27 -7.6 °C -12.1 °C 34107.2 hPa WSW 2.6 km/h 10.3 km/h 59 % 0 mm
17:32 -7.4 °C -11.5 °C 34107.2 hPa WSW 5.1 km/h 7.7 km/h 62 % 0 mm
17:37 -7.6 °C -12.8 °C 34107.2 hPa SW 12.9 km/h 15.6 km/h 54 % 0 mm
17:42 -7.6 °C -12.6 °C 34107.2 hPa SW 2.6 km/h 15.6 km/h 56 % 0 mm
17:52 -7.4 °C -12.1 °C 34107.2 hPa WSW 7.7 km/h 12.9 km/h 58 % 0 mm
17:57 -7.4 °C -12.3 °C 34097 hPa WSW 5.1 km/h 12.9 km/h 57 % 0 mm
18:02 -7.6 °C -12.2 °C 34097 hPa Calm   10.3 km/h 58 % 0 mm
18:07 -7.7 °C -12.6 °C 34097 hPa Calm   10.3 km/h 57 % 0 mm
18:12 -7.8 °C -12.5 °C 34097 hPa Calm   10.3 km/h 58 % 0 mm
18:17 -8.1 °C -12.8 °C 34097 hPa Calm   10.3 km/h 57 % 0 mm
18:22 -8.3 °C -12.7 °C 34097 hPa SW 2.6 km/h 10.3 km/h 60 % 0 mm
18:27 -8.6 °C -12.8 °C 34097 hPa WSW 2.6 km/h 10.3 km/h 61 % 0 mm
18:32 -8.7 °C -12.5 °C 34097 hPa WSW 2.6 km/h 10.3 km/h 64 % 0 mm
18:42 -8.9 °C -12.6 °C 34107.2 hPa Calm   2.6 km/h 65 % 0 mm
18:47 -8.9 °C -12.8 °C 34097 hPa Calm   2.6 km/h 63 % 0 mm
18:52 -8.9 °C -12.4 °C 34097 hPa Calm   2.6 km/h 66 % 0 mm
18:57 -8.9 °C -12.1 °C 34086.9 hPa Calm   2.6 km/h 69 % 0 mm
19:02 -8.8 °C -12.6 °C 34086.9 hPa Calm     64 % 0 mm
19:07 -8.8 °C -12.9 °C 34086.9 hPa Calm   2.6 km/h 61 % 0 mm
19:12 -8.8 °C -12.4 °C 34086.9 hPa Calm   2.6 km/h 65 % 0 mm
19:17 -8.9 °C -12.6 °C 34086.9 hPa Calm   2.6 km/h 65 % 0 mm
19:22 -9.1 °C -12.4 °C 34086.9 hPa Calm   2.6 km/h 67 % 0 mm
19:27 -9.2 °C -12.4 °C 34086.9 hPa Calm   2.6 km/h 68 % 0 mm
19:32 -9.3 °C -12.3 °C 34086.9 hPa Calm   2.6 km/h 70 % 0 mm
19:42 -9.6 °C -12.5 °C 34086.9 hPa Calm   2.6 km/h 71 % 0 mm
19:47 -9.8 °C -12.4 °C 34086.9 hPa Calm     74 % 0 mm
19:52 -10.1 °C -12.4 °C 34086.9 hPa Calm     76 % 0 mm
19:57 -10.3 °C -12.5 °C 34086.9 hPa Calm     77 % 0 mm
20:02 -10.5 °C -12.5 °C 34086.9 hPa Calm     79 % 0 mm
20:07 -10.7 °C -12.4 °C 34086.9 hPa Calm     81 % 0 mm
20:12 -10.8 °C -12.3 °C 34086.9 hPa Calm     83 % 0 mm
20:17 -10.9 °C -12.5 °C 34086.9 hPa Calm     83 % 0 mm
20:22 -11.1 °C -12.6 °C 34086.9 hPa Calm     83 % 0 mm
20:27 -11.2 °C -12.5 °C 34086.9 hPa Calm     85 % 0 mm
20:32 -11.3 °C -12.6 °C 34086.9 hPa Calm     86 % 0 mm
20:37 -11.3 °C -12.6 °C 34086.9 hPa Calm     86 % 0 mm
20:42 -11.5 °C -12.8 °C 34086.9 hPa Calm     86 % 0 mm
20:47 -11.6 °C -12.8 °C 34086.9 hPa Calm     86 % 0 mm
20:52 -11.6 °C -12.9 °C 34097 hPa Calm     86 % 0 mm
20:57 -11.6 °C -12.7 °C 34097 hPa Calm     87 % 0 mm
21:02 -11.6 °C -12.8 °C 34097 hPa Calm     86 % 0 mm
21:12 -11.6 °C -12.9 °C 34097 hPa Calm     86 % 0 mm
21:17 -11.8 °C -13 °C 34097 hPa Calm     86 % 0 mm
21:22 -11.8 °C -13.1 °C 34097 hPa Calm     86 % 0 mm
21:27 -11.8 °C -13 °C 34097 hPa Calm     87 % 0 mm
21:32 -11.9 °C -13.1 °C 34097 hPa Calm     87 % 0 mm
21:37 -11.9 °C -13 °C 34097 hPa Calm     88 % 0 mm
21:42 -12.1 °C -13.1 °C 34107.2 hPa Calm     88 % 0 mm
21:47 -12.1 °C -13.2 °C 34107.2 hPa Calm     88 % 0 mm
21:52 -12.1 °C -13.2 °C 34107.2 hPa Calm     88 % 0 mm
21:57 -12.1 °C -13.2 °C 34107.2 hPa Calm     88 % 0 mm
22:02 -12.1 °C -13.1 °C 34107.2 hPa Calm     89 % 0 mm
22:07 -12.2 °C -13.1 °C 34107.2 hPa Calm     89 % 0 mm
22:12 -12.3 °C -13.3 °C 34107.2 hPa Calm     88 % 0 mm
22:17 -12.4 °C -13.3 °C 34107.2 hPa Calm     89 % 0 mm
22:22 -12.4 °C -13.3 °C 34107.2 hPa Calm     90 % 0 mm
22:27 -12.3 °C -13.1 °C 34107.2 hPa Calm     91 % 0 mm
22:32 -12.3 °C -13.1 °C 34107.2 hPa Calm     91 % 0 mm
22:37 -12.3 °C -13.1 °C 34107.2 hPa Calm     91 % 0 mm
22:42 -12.3 °C -13.1 °C 34107.2 hPa Calm     91 % 0 mm
22:52 -12.2 °C -12.9 °C 34107.2 hPa Calm     91 % 0 mm
22:57 -12.2 °C -12.9 °C 34107.2 hPa Calm     91 % 0 mm
23:02 -12.1 °C -12.9 °C 34107.2 hPa Calm     91 % 0 mm
23:07 -12.1 °C -12.9 °C 34107.2 hPa Calm     91 % 0 mm
23:12 -11.9 °C -12.8 °C 34107.2 hPa Calm   2.6 km/h 90 % 0 mm
23:17 -11.9 °C -12.8 °C 34107.2 hPa Calm   2.6 km/h 89 % 0 mm
23:22 -11.9 °C -12.8 °C 34107.2 hPa Calm   2.6 km/h 89 % 0 mm
23:27 -12 °C -12.9 °C 34120.7 hPa Calm   2.6 km/h 89 % 0 mm
23:32 -11.9 °C -12.8 °C 34120.7 hPa SSW 2.6 km/h 2.6 km/h 90 % 0 mm
23:37 -11.8 °C -12.9 °C 34120.7 hPa Calm   7.7 km/h 87 % 0 mm
23:42 -11.6 °C -13.1 °C 34120.7 hPa Calm   10.3 km/h 84 % 0 mm
23:47 -11.4 °C -13 °C 34130.9 hPa SW 10.3 km/h 12.9 km/h 83 % 0 mm
23:52 -11.4 °C -13.1 °C 34130.9 hPa WSW 5.1 km/h 12.9 km/h 82 % 0 mm
23:57 -11.3 °C -13 °C 34130.9 hPa Calm   15.6 km/h 82 % 0 mm
Meteo18
Compliments of Weather Underground - 4 mb

Script developed by  Jim McMurry - jmcmurry@mwt.net Adapted for the template by  Wim van der Kuil - Leuven-Template.eu

You find our weather info also at:

European Weather Network

Weather Underground

Equipment we use:

Weather-station
Davis Vue

Weather-program
Meteobridge

Weather-server
Raspberry PI 2 B+

Provider
1 and 1

Davis Vue

Meteobridge

Raspberry PI 2 B+

1 and 1